Time;durP1;ratioP1;P1;durP2;ratioP2;P2;SDS_P1;SDS_P2;PMS_P1;PMS_P2;Temp;Humidity;BMP_temperature;BMP_pressure;BME280_temperature;BME280_humidity;BME280_pressure;Samples;Min_cycle;Max_cycle;Signal;HPM_P1;HPM_P2
2021/04/13 00:00:18;;;;;;;1.00;0.50;;;21.70;31.00;;;;;;5034761;28;20461;-68
2021/04/13 00:02:53;;;;;;;0.98;0.50;;;21.70;31.00;;;;;;5034880;28;20397;-66
2021/04/13 00:05:41;;;;;;;1.20;0.60;;;21.70;30.90;;;;;;5034212;28;20402;-68
2021/04/13 00:08:14;;;;;;;1.30;0.52;;;21.70;30.80;;;;;;5034538;28;20779;-68
2021/04/13 00:10:56;;;;;;;1.05;0.60;;;21.70;30.90;;;;;;5034572;28;20406;-69
2021/04/13 00:13:23;;;;;;;1.02;0.57;;;21.70;30.80;;;;;;5032871;28;20407;-67
2021/04/13 00:15:52;;;;;;;1.05;0.60;;;21.70;30.80;;;;;;5034459;28;20398;-67
2021/04/13 00:18:24;;;;;;;1.08;0.50;;;21.70;30.70;;;;;;5034376;28;20433;-68
2021/04/13 00:21:03;;;;;;;1.00;0.60;;;21.70;30.70;;;;;;5034458;28;20423;-67
2021/04/13 00:23:29;;;;;;;2.03;0.47;;;21.70;30.70;;;;;;5033849;28;20401;-66
2021/04/13 00:25:59;;;;;;;1.00;0.60;;;21.70;30.70;;;;;;5034086;28;20414;-68
2021/04/13 00:28:28;;;;;;;0.70;0.40;;;21.70;30.70;;;;;;5033945;28;20390;-68
2021/04/13 00:31:00;;;;;;;1.00;0.43;;;21.60;30.60;;;;;;5034176;28;20395;-67
2021/04/13 00:33:32;;;;;;;1.00;0.50;;;21.70;30.70;;;;;;5033735;28;20452;-68
2021/04/13 00:36:09;;;;;;;1.00;0.60;;;21.70;30.70;;;;;;5034117;28;20395;-68
2021/04/13 00:38:39;;;;;;;1.40;0.50;;;21.60;30.70;;;;;;5034039;28;20460;-68
2021/04/13 00:41:28;;;;;;;0.73;0.50;;;21.70;30.70;;;;;;5034196;28;20479;-68
2021/04/13 00:44:05;;;;;;;0.90;0.40;;;21.70;30.70;;;;;;5033086;28;20398;-68
2021/04/13 00:46:49;;;;;;;0.82;0.50;;;21.60;30.90;;;;;;5033754;28;20437;-68
2021/04/13 00:49:17;;;;;;;0.80;0.45;;;21.60;30.60;;;;;;5033587;28;20399;-66
2021/04/13 00:51:56;;;;;;;0.82;0.45;;;21.60;30.60;;;;;;5033464;28;20864;-67
2021/04/13 00:54:38;;;;;;;0.93;0.45;;;21.60;30.60;;;;;;5033535;28;20450;-68
2021/04/13 00:57:22;;;;;;;0.77;0.40;;;21.60;30.60;;;;;;5033169;28;20419;-68
2021/04/13 00:59:49;;;;;;;0.73;0.40;;;21.60;30.60;;;;;;5033598;28;20937;-68
2021/04/13 01:02:21;;;;;;;0.82;0.50;;;21.60;30.60;;;;;;5033602;28;20395;-67
2021/04/13 01:05:16;;;;;;;0.77;0.43;;;21.60;30.50;;;;;;5032363;28;20398;-68
2021/04/13 01:07:52;;;;;;;0.70;0.40;;;21.60;30.50;;;;;;5033189;28;20402;-68
2021/04/13 01:10:36;;;;;;;0.70;0.40;;;21.60;30.50;;;;;;5033543;28;20383;-68
2021/04/13 01:13:12;;;;;;;0.60;0.40;;;21.60;30.50;;;;;;5033593;28;20391;-68
2021/04/13 01:15:49;;;;;;;0.70;0.40;;;21.60;30.50;;;;;;5033031;28;20894;-69
2021/04/13 01:18:22;;;;;;;1.00;0.40;;;21.60;30.50;;;;;;5033451;28;20550;-68
2021/04/13 01:20:55;;;;;;;1.00;0.50;;;21.50;30.40;;;;;;5032105;28;20818;-66
2021/04/13 01:23:36;;;;;;;0.73;0.40;;;21.50;30.40;;;;;;5032609;28;20395;-66
2021/04/13 01:26:04;;;;;;;0.60;0.30;;;21.50;30.50;;;;;;5033203;28;20395;-67
2021/04/13 01:28:32;;;;;;;0.60;0.30;;;21.60;30.50;;;;;;5033191;28;20481;-68
2021/04/13 01:31:44;;;;;;;0.60;0.40;;;21.60;30.50;;;;;;5032976;28;20391;-68
2021/04/13 01:34:23;;;;;;;0.53;0.30;;;21.50;30.40;;;;;;5033149;28;20473;-67
2021/04/13 01:37:15;;;;;;;0.60;0.40;;;21.50;30.40;;;;;;5031772;28;20411;-68
2021/04/13 01:39:50;;;;;;;0.60;0.40;;;21.50;30.40;;;;;;5030960;28;20830;-69
2021/04/13 01:42:17;;;;;;;0.60;0.40;;;21.50;30.40;;;;;;5032994;28;20396;-68
2021/04/13 01:45:08;;;;;;;1.10;0.38;;;21.50;30.40;;;;;;5032820;28;20414;-65
2021/04/13 01:47:35;;;;;;;0.60;0.30;;;21.50;30.40;;;;;;5031606;28;21223;-69
2021/04/13 01:50:07;;;;;;;0.60;0.32;;;21.50;30.30;;;;;;5033236;28;20399;-68
2021/04/13 01:52:36;;;;;;;0.70;0.30;;;21.50;30.30;;;;;;5032722;28;20476;-67
2021/04/13 01:55:10;;;;;;;0.60;0.30;;;21.50;30.40;;;;;;5031613;28;20452;-66
2021/04/13 01:57:47;;;;;;;0.60;0.40;;;21.50;30.30;;;;;;5032321;28;20453;-68
2021/04/13 02:00:27;;;;;;;0.60;0.40;;;21.50;30.30;;;;;;5032543;28;20427;-67
2021/04/13 02:02:59;;;;;;;0.80;0.38;;;21.50;30.30;;;;;;5032307;28;20405;-68
2021/04/13 02:05:29;;;;;;;0.50;0.40;;;21.50;30.30;;;;;;5032001;28;20406;-67
2021/04/13 02:08:05;;;;;;;0.70;0.50;;;21.50;30.30;;;;;;5032502;28;20379;-68
2021/04/13 02:10:36;;;;;;;0.52;0.38;;;21.50;30.30;;;;;;5032371;28;20387;-68
2021/04/13 02:13:08;;;;;;;0.73;0.40;;;21.40;30.20;;;;;;5031185;28;20884;-68
2021/04/13 02:15:57;;;;;;;0.80;0.40;;;21.40;30.20;;;;;;5031622;28;20395;-67
2021/04/13 02:18:41;;;;;;;0.50;0.40;;;21.40;30.30;;;;;;5032272;28;20497;-69
2021/04/13 02:21:17;;;;;;;0.60;0.38;;;21.40;30.20;;;;;;5032367;28;20422;-68
2021/04/13 02:23:55;;;;;;;0.70;0.40;;;21.50;30.30;;;;;;5031900;28;20391;-68
2021/04/13 02:26:21;;;;;;;0.40;0.30;;;21.50;30.30;;;;;;5031707;28;20397;-68
2021/04/13 02:28:50;;;;;;;0.50;0.40;;;21.40;30.20;;;;;;5031451;28;20445;-67
2021/04/13 02:31:37;;;;;;;0.68;0.30;;;21.40;30.10;;;;;;5031801;28;20803;-67
2021/04/13 02:34:32;;;;;;;0.50;0.30;;;21.40;30.10;;;;;;5032119;28;20387;-68
2021/04/13 02:37:06;;;;;;;0.80;0.50;;;21.40;30.20;;;;;;5031754;28;20960;-66
2021/04/13 02:39:33;;;;;;;0.50;0.30;;;21.40;30.10;;;;;;5031467;28;20375;-68
2021/04/13 02:42:06;;;;;;;0.52;0.30;;;21.40;30.10;;;;;;5030466;28;20914;-68
2021/04/13 02:44:32;;;;;;;0.50;0.30;;;21.40;30.10;;;;;;5031887;28;20725;-68
2021/04/13 02:47:01;;;;;;;0.60;0.40;;;21.40;30.10;;;;;;5030266;28;20939;-68
2021/04/13 02:49:29;;;;;;;0.60;0.40;;;21.40;30.10;;;;;;5031288;28;20391;-67
2021/04/13 02:52:00;;;;;;;1.07;0.40;;;21.40;30.10;;;;;;5030573;28;20403;-68
2021/04/13 02:54:34;;;;;;;0.47;0.35;;;21.40;30.10;;;;;;5030966;28;20414;-68
2021/04/13 02:57:05;;;;;;;0.57;0.30;;;21.40;30.10;;;;;;5031605;28;20418;-68
2021/04/13 02:59:34;;;;;;;0.70;0.40;;;21.40;30.10;;;;;;5031138;28;20390;-68
2021/04/13 03:02:36;;;;;;;0.70;0.32;;;21.40;30.20;;;;;;5031739;28;20429;-68
2021/04/13 03:05:04;;;;;;;0.60;0.40;;;21.30;30.10;;;;;;5031568;28;20751;-67
2021/04/13 03:07:30;;;;;;;0.40;0.30;;;21.40;30.20;;;;;;5030757;28;20434;-65
2021/04/13 03:10:09;;;;;;;2.47;0.50;;;21.30;30.10;;;;;;5031615;28;20391;-68
2021/04/13 03:12:39;;;;;;;1.90;0.40;;;21.30;30.50;;;;;;5031305;28;20466;-68
2021/04/13 03:15:10;;;;;;;1.50;0.30;;;21.20;30.90;;;;;;5031527;28;20429;-68
2021/04/13 03:17:37;;;;;;;3.08;0.50;;;21.30;31.10;;;;;;5030864;28;20955;-68
2021/04/13 03:20:07;;;;;;;2.55;0.55;;;21.30;30.70;;;;;;5031447;28;20475;-63
2021/04/13 03:22:35;;;;;;;1.60;0.50;;;21.40;30.60;;;;;;5032011;28;20875;-63
2021/04/13 03:25:02;;;;;;;2.05;0.70;;;21.30;30.30;;;;;;5030833;28;20473;-64
2021/04/13 03:27:30;;;;;;;1.30;0.40;;;21.30;30.70;;;;;;5030204;28;20453;-58
2021/04/13 03:30:17;;;;;;;0.95;0.40;;;21.30;31.70;;;;;;5031067;28;20384;-68
2021/04/13 03:33:03;;;;;;;0.90;0.20;;;21.30;31.40;;;;;;5031180;28;20905;-68
2021/04/13 03:35:31;;;;;;;1.20;0.40;;;21.40;31.00;;;;;;5030608;28;20387;-67
2021/04/13 03:37:58;;;;;;;1.60;0.40;;;21.40;31.40;;;;;;5029657;28;20451;-62
2021/04/13 03:40:29;;;;;;;3.38;0.50;;;21.40;31.00;;;;;;5030987;28;20384;-68
2021/04/13 03:43:03;;;;;;;4.97;0.70;;;21.40;30.90;;;;;;5031048;28;20410;-67
2021/04/13 03:45:30;;;;;;;6.85;0.60;;;21.50;31.60;;;;;;5029155;28;20411;-63
2021/04/13 03:48:00;;;;;;;5.03;0.50;;;21.50;32.60;;;;;;5029670;28;20426;-68
2021/04/13 03:50:29;;;;;;;4.53;0.40;;;21.50;33.30;;;;;;5030984;28;20397;-60
2021/04/13 03:53:32;;;;;;;3.05;0.40;;;21.50;33.00;;;;;;5031009;28;20427;-67
2021/04/13 03:56:02;;;;;;;3.30;0.40;;;21.50;32.50;;;;;;5029459;28;20391;-67
2021/04/13 03:58:33;;;;;;;4.93;0.40;;;21.50;32.30;;;;;;5030908;28;20402;-61
2021/04/13 04:00:59;;;;;;;3.13;0.28;;;21.50;32.20;;;;;;5031026;28;20391;-68
2021/04/13 04:03:25;;;;;;;3.38;0.40;;;21.40;32.00;;;;;;5030654;28;20508;-67
2021/04/13 04:05:56;;;;;;;1.90;0.30;;;21.50;32.00;;;;;;5030713;28;20467;-68
2021/04/13 04:08:30;;;;;;;1.30;0.40;;;21.40;31.50;;;;;;5030811;28;20933;-69
2021/04/13 04:10:58;;;;;;;9.53;0.70;;;21.40;31.40;;;;;;5030556;28;20529;-68
2021/04/13 04:13:33;;;;;;;4.80;0.70;;;21.50;32.00;;;;;;5030504;28;20387;-67
2021/04/13 04:16:09;;;;;;;5.75;0.50;;;21.40;31.70;;;;;;5030805;28;20391;-67
2021/04/13 04:18:40;;;;;;;3.65;1.00;;;21.40;31.00;;;;;;5031989;28;20481;-67
2021/04/13 04:21:37;;;;;;;3.97;0.50;;;21.40;31.00;;;;;;5034461;28;20399;-68
2021/04/13 04:24:21;;;;;;;4.38;0.43;;;21.40;31.10;;;;;;5033752;28;20453;-68
2021/04/13 04:26:55;;;;;;;4.10;0.40;;;21.40;31.30;;;;;;5034033;28;20748;-68
2021/04/13 04:29:33;;;;;;;4.40;0.50;;;21.30;31.30;;;;;;5034290;28;20489;-69
2021/04/13 04:32:21;;;;;;;1.45;0.32;;;21.30;31.30;;;;;;5041024;28;20389;-66
2021/04/13 04:34:50;;;;;;;3.08;0.30;;;21.30;31.30;;;;;;5034523;28;20751;-68
2021/04/13 04:37:26;;;;;;;2.50;0.52;;;21.30;31.30;;;;;;5049533;28;20415;-68
2021/04/13 04:40:26;;;;;;;1.77;0.38;;;21.30;31.10;;;;;;5033944;28;20985;-68
2021/04/13 04:42:59;;;;;;;3.83;0.40;;;21.30;31.40;;;;;;5034008;28;20473;-68
2021/04/13 04:45:43;;;;;;;2.53;0.40;;;21.30;32.30;;;;;;5033483;28;20407;-67
2021/04/13 04:48:35;;;;;;;3.73;0.60;;;21.40;32.90;;;;;;5034019;28;20395;-65
2021/04/13 04:51:07;;;;;;;1.08;0.35;;;21.40;32.50;;;;;;5033900;28;20390;-67
2021/04/13 04:53:34;;;;;;;2.13;0.55;;;21.40;31.80;;;;;;5033601;28;20869;-67
2021/04/13 04:56:02;;;;;;;2.00;0.50;;;21.40;31.70;;;;;;5033716;28;20392;-67
2021/04/13 04:58:28;;;;;;;2.40;0.40;;;21.30;31.50;;;;;;5033736;28;20421;-67
2021/04/13 05:00:55;;;;;;;3.80;0.40;;;21.30;31.40;;;;;;5033773;28;20751;-68
2021/04/13 05:03:23;;;;;;;1.30;0.30;;;21.30;31.40;;;;;;5033601;28;20395;-68
2021/04/13 05:05:50;;;;;;;4.47;0.40;;;21.30;31.30;;;;;;5033145;28;20392;-68
2021/04/13 05:08:16;;;;;;;1.58;0.30;;;21.30;31.30;;;;;;5033555;28;20910;-68
2021/04/13 05:10:41;;;;;;;3.20;0.60;;;21.30;31.30;;;;;;5033542;28;20580;-68
2021/04/13 05:13:07;;;;;;;3.85;0.60;;;21.20;31.30;;;;;;5033522;28;20391;-69
2021/04/13 05:15:33;;;;;;;1.80;0.40;;;21.20;31.20;;;;;;5031673;28;20425;-67
2021/04/13 05:17:59;;;;;;;1.87;0.50;;;21.20;31.20;;;;;;5033526;28;20813;-68
2021/04/13 05:20:25;;;;;;;3.60;0.30;;;21.20;31.30;;;;;;5033360;28;20456;-68
2021/04/13 05:22:51;;;;;;;1.15;0.30;;;21.20;31.20;;;;;;5033605;28;20395;-68
2021/04/13 05:25:18;;;;;;;1.35;0.47;;;21.20;31.20;;;;;;5033244;28;20874;-68
2021/04/13 05:27:44;;;;;;;2.08;0.30;;;21.20;31.20;;;;;;5032421;28;20398;-68
2021/04/13 05:30:11;;;;;;;2.35;0.30;;;21.20;31.20;;;;;;5032831;28;20388;-64
2021/04/13 05:32:37;;;;;;;1.45;0.30;;;21.20;31.10;;;;;;5033163;28;20395;-68
2021/04/13 05:35:04;;;;;;;2.08;0.45;;;21.10;31.00;;;;;;5033027;28;20391;-68
2021/04/13 05:37:32;;;;;;;1.13;0.30;;;21.20;31.00;;;;;;5032622;28;20481;-68
2021/04/13 05:39:58;;;;;;;1.38;0.30;;;21.20;31.00;;;;;;5032791;28;20387;-68
2021/04/13 05:42:30;;;;;;;2.80;0.32;;;21.20;31.00;;;;;;5031626;28;20392;-67
2021/04/13 05:44:56;;;;;;;1.45;0.30;;;21.20;30.90;;;;;;5032789;28;20387;-68
2021/04/13 05:47:25;;;;;;;2.25;0.40;;;21.20;30.90;;;;;;5041680;28;20403;-68
2021/04/13 05:49:50;;;;;;;1.30;0.30;;;21.20;30.90;;;;;;5052277;28;20915;-68
2021/04/13 05:52:16;;;;;;;1.10;0.32;;;21.20;30.80;;;;;;5052761;28;20476;-68
2021/04/13 05:54:42;;;;;;;0.77;0.30;;;21.20;30.80;;;;;;5052685;28;20397;-68
2021/04/13 05:57:12;;;;;;;0.80;0.30;;;21.20;30.70;;;;;;5044202;28;20450;-65
2021/04/13 05:59:38;;;;;;;0.70;0.30;;;21.20;30.70;;;;;;5031048;28;20427;-65
2021/04/13 06:02:04;;;;;;;1.33;0.30;;;21.20;30.70;;;;;;5032741;28;20422;-68
2021/04/13 06:04:30;;;;;;;0.90;0.35;;;21.20;30.70;;;;;;5032501;28;20398;-67
2021/04/13 06:06:56;;;;;;;3.25;0.40;;;21.20;30.70;;;;;;5034485;28;20497;-68
2021/04/13 06:09:22;;;;;;;0.60;0.30;;;21.20;30.70;;;;;;5051316;28;20484;-68
2021/04/13 06:11:49;;;;;;;1.30;0.30;;;21.20;30.70;;;;;;5050528;28;20960;-68
2021/04/13 06:14:15;;;;;;;1.02;0.40;;;21.20;30.70;;;;;;5052185;28;20394;-68
2021/04/13 06:16:43;;;;;;;0.80;0.32;;;21.20;30.60;;;;;;5052157;28;20762;-68
2021/04/13 06:19:09;;;;;;;0.73;0.30;;;21.20;30.60;;;;;;5052125;28;20409;-66
2021/04/13 06:21:35;;;;;;;0.47;0.30;;;21.20;30.50;;;;;;5051618;28;20408;-58
2021/04/13 06:24:01;;;;;;;1.10;0.40;;;21.20;30.60;;;;;;5052007;28;20897;-69
2021/04/13 06:26:27;;;;;;;1.60;0.40;;;21.20;30.50;;;;;;5052059;28;20384;-58
2021/04/13 06:28:53;;;;;;;1.10;0.40;;;21.20;30.50;;;;;;5052022;28;20492;-58
2021/04/13 06:31:19;;;;;;;1.00;0.50;;;21.20;30.60;;;;;;5046583;28;20405;-68
2021/04/13 06:33:44;;;;;;;1.48;0.50;;;21.20;30.90;;;;;;5050630;28;20386;-67
2021/04/13 06:36:16;;;;;;;1.15;0.45;;;21.20;31.30;;;;;;5050428;28;20893;-67
2021/04/13 06:38:43;;;;;;;1.40;0.38;;;21.20;31.60;;;;;;5051959;28;20480;-69
2021/04/13 06:41:50;;;;;;;1.20;0.50;;;21.30;31.70;;;;;;5037418;28;20444;-66
2021/04/13 06:44:40;;;;;;;1.30;0.43;;;21.30;31.70;;;;;;5031817;28;20403;-63
2021/04/13 06:47:48;;;;;;;1.27;0.40;;;21.30;31.80;;;;;;5031511;28;20398;-66
2021/04/13 06:50:25;;;;;;;1.40;0.40;;;21.30;31.70;;;;;;5031681;28;20401;-68
2021/04/13 06:53:18;;;;;;;1.10;0.50;;;21.30;31.70;;;;;;5030401;28;20398;-68
2021/04/13 06:56:01;;;;;;;1.20;0.50;;;21.30;31.60;;;;;;5031278;28;20993;-67
2021/04/13 06:58:54;;;;;;;1.65;0.60;;;21.30;31.60;;;;;;5031552;28;20890;-68
2021/04/13 07:01:40;;;;;;;0.98;0.40;;;21.30;31.60;;;;;;5031508;28;20397;-67
2021/04/13 07:04:25;;;;;;;1.23;0.68;;;21.30;31.60;;;;;;5031579;28;20472;-66
2021/04/13 07:07:14;;;;;;;1.08;0.50;;;21.20;31.40;;;;;;5031635;28;20411;-69
2021/04/13 07:09:48;;;;;;;1.80;0.52;;;21.20;31.70;;;;;;5031166;28;20387;-66
2021/04/13 07:12:24;;;;;;;1.70;0.50;;;21.20;31.70;;;;;;5031532;28;20887;-65
2021/04/13 07:15:03;;;;;;;1.90;0.60;;;21.20;31.70;;;;;;5030178;28;20751;-67
2021/04/13 07:17:52;;;;;;;1.05;0.60;;;21.20;31.70;;;;;;5031320;28;20907;-67
2021/04/13 07:20:24;;;;;;;1.27;0.60;;;21.20;31.80;;;;;;5031385;28;20880;-66
2021/04/13 07:22:56;;;;;;;0.70;0.40;;;21.20;31.80;;;;;;5031412;28;20937;-59
2021/04/13 07:25:25;;;;;;;1.20;0.63;;;21.20;31.70;;;;;;5038792;28;20479;-68
2021/04/13 07:27:54;;;;;;;1.42;0.70;;;21.20;31.80;;;;;;5039534;28;20424;-60
2021/04/13 07:30:27;;;;;;;2.08;0.60;;;21.10;31.70;;;;;;5041498;28;20400;-68
2021/04/13 07:32:58;;;;;;;2.00;0.52;;;21.20;31.80;;;;;;5049762;28;20384;-65
2021/04/13 07:35:29;;;;;;;0.90;0.60;;;21.10;31.70;;;;;;5042604;28;20464;-68
2021/04/13 07:37:56;;;;;;;1.02;0.60;;;21.10;31.70;;;;;;5033224;28;20428;-67
2021/04/13 07:40:26;;;;;;;1.70;0.60;;;21.10;31.80;;;;;;5039119;28;20423;-67
2021/04/13 07:43:20;;;;;;;1.42;0.60;;;21.10;31.70;;;;;;5039612;28;20750;-68
2021/04/13 07:45:58;;;;;;;1.60;0.60;;;21.10;31.70;;;;;;5021894;28;20411;-66
2021/04/13 07:49:05;;;;;;;1.02;0.60;;;21.10;31.70;;;;;;5042806;28;20411;-67
2021/04/13 07:51:45;;;;;;;1.70;0.50;;;21.10;31.70;;;;;;5042398;28;20488;-68
2021/04/13 07:54:23;;;;;;;0.82;0.60;;;21.10;31.70;;;;;;5047902;28;20468;-59
2021/04/13 07:56:51;;;;;;;0.80;0.60;;;21.10;31.70;;;;;;5039150;28;20509;-58
2021/04/13 07:59:51;;;;;;;1.40;0.63;;;21.10;31.70;;;;;;5033265;28;20486;-58
2021/04/13 08:02:17;;;;;;;1.10;0.60;;;21.10;31.80;;;;;;5013393;28;20422;-59
2021/04/13 08:04:49;;;;;;;1.10;0.60;;;21.10;31.70;;;;;;5033272;28;20430;-58
2021/04/13 08:07:34;;;;;;;0.70;0.50;;;21.10;31.70;;;;;;5033448;28;20403;-59
2021/04/13 08:10:34;;;;;;;1.40;0.60;;;21.10;31.70;;;;;;5033220;28;20383;-59
2021/04/13 08:13:12;;;;;;;1.70;0.60;;;21.10;31.70;;;;;;5033154;28;20395;-60
2021/04/13 08:15:38;;;;;;;0.73;0.60;;;21.10;31.70;;;;;;5033055;28;20871;-59
2021/04/13 08:18:11;;;;;;;1.20;0.60;;;21.10;31.70;;;;;;5033187;28;20423;-58
2021/04/13 08:20:40;;;;;;;0.95;0.63;;;21.10;31.80;;;;;;5034489;28;20394;-58
2021/04/13 08:23:11;;;;;;;0.80;0.60;;;21.10;31.80;;;;;;5034416;28;20539;-58
2021/04/13 08:25:44;;;;;;;0.70;0.50;;;21.10;31.80;;;;;;5033983;28;20782;-58
2021/04/13 08:28:20;;;;;;;1.40;0.50;;;21.00;31.70;;;;;;5034226;28;20387;-58
2021/04/13 08:34:03;;;;;;;0.90;0.60;;;21.10;31.70;;;;;;5033781;28;20438;-58
2021/04/13 08:36:36;;;;;;;0.77;0.55;;;21.10;31.80;;;;;;5034246;28;20411;-63
2021/04/13 08:39:12;;;;;;;0.87;0.60;;;21.10;31.70;;;;;;5034223;28;20406;-58
2021/04/13 08:42:23;;;;;;;0.90;0.60;;;21.10;31.70;;;;;;5033935;28;20421;-62
2021/04/13 08:45:17;;;;;;;1.20;0.60;;;21.10;31.70;;;;;;5033898;28;20433;-58
2021/04/13 08:47:51;;;;;;;0.90;0.50;;;21.00;31.60;;;;;;5033579;28;20597;-58
2021/04/13 08:50:29;;;;;;;0.50;0.43;;;21.00;31.70;;;;;;5033944;28;20406;-68
2021/04/13 08:52:59;;;;;;;1.40;0.50;;;21.00;31.60;;;;;;5033929;28;20391;-59
2021/04/13 08:55:36;;;;;;;0.70;0.60;;;21.10;31.70;;;;;;5033654;28;20875;-58
2021/04/13 08:58:22;;;;;;;1.20;0.52;;;21.00;31.70;;;;;;5033505;28;20526;-60
2021/04/13 09:00:55;;;;;;;0.68;0.50;;;21.10;31.70;;;;;;5033788;28;20390;-59
2021/04/13 09:03:24;;;;;;;0.82;0.50;;;21.00;31.70;;;;;;5032346;28;20883;-59
2021/04/13 09:06:12;;;;;;;0.80;0.57;;;21.10;31.70;;;;;;5032550;28;20391;-59
2021/04/13 09:08:49;;;;;;;1.05;0.40;;;21.00;31.70;;;;;;5033545;28;20425;-60
2021/04/13 09:11:35;;;;;;;0.90;0.40;;;21.00;31.70;;;;;;5033497;28;20391;-63
2021/04/13 09:14:10;;;;;;;0.85;0.50;;;21.10;31.70;;;;;;5032968;28;20391;-69
2021/04/13 09:16:41;;;;;;;0.80;0.40;;;21.00;31.70;;;;;;5032793;28;20445;-68
2021/04/13 09:19:18;;;;;;;0.77;0.43;;;21.00;31.70;;;;;;5033118;28;20383;-63
2021/04/13 09:21:47;;;;;;;0.80;0.40;;;21.00;31.70;;;;;;5037823;28;20387;-65
2021/04/13 09:24:19;;;;;;;1.80;0.50;;;21.00;31.80;;;;;;5037437;28;20883;-68
2021/04/13 09:27:24;;;;;;;0.60;0.38;;;21.00;31.80;;;;;;5033408;28;20448;-60
2021/04/13 09:29:54;;;;;;;1.40;0.50;;;21.00;31.70;;;;;;5032519;28;20391;-62
2021/04/13 09:32:26;;;;;;;0.82;0.50;;;21.00;31.70;;;;;;5033035;28;20415;-62
2021/04/13 09:34:57;;;;;;;1.02;0.40;;;21.00;31.70;;;;;;5033071;28;20946;-60
2021/04/13 09:38:00;;;;;;;1.30;0.50;;;21.00;31.70;;;;;;5032944;28;20421;-61
2021/04/13 09:40:38;;;;;;;1.30;0.60;;;21.00;31.70;;;;;;5032886;28;20406;-60
2021/04/13 09:43:13;;;;;;;0.70;0.50;;;21.00;31.70;;;;;;5033031;28;20418;-58
2021/04/13 09:45:52;;;;;;;1.73;0.38;;;21.00;31.60;;;;;;5032524;28;20403;-59
2021/04/13 09:48:39;;;;;;;1.75;0.50;;;21.00;31.60;;;;;;5032731;28;20391;-58
2021/04/13 09:51:30;;;;;;;0.82;0.40;;;21.00;31.70;;;;;;5032754;28;20410;-58
2021/04/13 09:54:25;;;;;;;1.00;0.50;;;21.00;31.60;;;;;;5032237;28;20391;-59
2021/04/13 09:57:19;;;;;;;1.60;0.50;;;21.00;31.60;;;;;;5032636;28;20417;-59
2021/04/13 10:00:23;;;;;;;1.10;0.40;;;21.00;31.60;;;;;;5032259;28;20887;-58
2021/04/13 10:03:12;;;;;;;0.75;0.50;;;20.90;31.50;;;;;;5032457;28;20387;-58
2021/04/13 10:05:47;;;;;;;1.00;0.30;;;21.00;31.50;;;;;;5032662;28;20376;-58
2021/04/13 10:08:22;;;;;;;0.70;0.50;;;21.00;31.50;;;;;;5032420;28;20379;-58
2021/04/13 10:11:15;;;;;;;1.00;0.40;;;21.00;31.50;;;;;;5032384;28;20400;-58
2021/04/13 10:13:52;;;;;;;0.70;0.50;;;21.00;31.50;;;;;;5032010;28;20852;-58
2021/04/13 10:16:39;;;;;;;1.10;0.60;;;20.90;31.40;;;;;;5031275;28;20906;-58
2021/04/13 10:19:19;;;;;;;1.15;0.50;;;21.00;31.50;;;;;;5032277;28;20887;-58
2021/04/13 10:22:12;;;;;;;1.00;0.40;;;20.90;31.40;;;;;;5032026;28;20390;-58
2021/04/13 10:25:16;;;;;;;0.70;0.40;;;20.90;31.40;;;;;;5030863;28;20803;-64
2021/04/13 10:28:19;;;;;;;0.52;0.40;;;20.90;31.40;;;;;;5031863;28;20448;-62
2021/04/13 10:30:45;;;;;;;0.88;0.47;;;21.00;31.50;;;;;;5031678;28;20407;-66
2021/04/13 10:33:26;;;;;;;0.70;0.40;;;21.00;31.40;;;;;;5031363;28;20384;-59
2021/04/13 10:36:21;;;;;;;0.80;0.40;;;20.90;31.40;;;;;;5031415;28;20391;-58
2021/04/13 10:39:14;;;;;;;0.63;0.35;;;21.00;31.50;;;;;;5030470;28;20399;-60
2021/04/13 10:41:58;;;;;;;0.80;0.50;;;20.90;31.40;;;;;;5032208;28;20417;-60
2021/04/13 10:45:11;;;;;;;0.88;0.40;;;20.90;31.40;;;;;;5031709;28;20391;-63
2021/04/13 10:47:57;;;;;;;0.80;0.40;;;20.90;31.40;;;;;;5030758;28;20411;-66
2021/04/13 10:50:44;;;;;;;0.93;0.52;;;20.90;31.40;;;;;;5031744;28;20383;-63
2021/04/13 10:53:48;;;;;;;1.10;0.40;;;20.90;31.40;;;;;;5031927;28;20387;-65
2021/04/13 10:56:32;;;;;;;2.03;0.70;;;20.90;31.40;;;;;;5031546;28;20442;-63
2021/04/13 10:59:29;;;;;;;2.08;0.50;;;20.90;31.40;;;;;;5030405;28;20406;-68
2021/04/13 11:02:04;;;;;;;1.50;0.43;;;20.90;31.40;;;;;;5031351;28;20477;-67
2021/04/13 11:04:48;;;;;;;1.92;0.40;;;20.90;31.50;;;;;;5030239;28;20475;-67
2021/04/13 11:07:51;;;;;;;0.70;0.40;;;20.90;31.40;;;;;;5031558;28;20421;-67
2021/04/13 11:10:46;;;;;;;0.80;0.50;;;21.00;31.60;;;;;;5031444;28;20819;-68
2021/04/13 11:13:49;;;;;;;0.57;0.40;;;20.90;31.50;;;;;;5031486;28;20810;-68
2021/04/13 11:16:51;;;;;;;0.70;0.40;;;20.90;31.60;;;;;;5031351;28;20823;-68
2021/04/13 11:19:31;;;;;;;1.00;0.50;;;20.90;31.60;;;;;;5031354;28;20391;-68
2021/04/13 11:22:21;;;;;;;1.10;0.40;;;20.90;31.60;;;;;;5031010;28;20383;-67
2021/04/13 11:25:26;;;;;;;0.85;0.40;;;20.90;31.60;;;;;;5031422;28;20390;-59
2021/04/13 11:28:22;;;;;;;1.33;0.40;;;20.90;31.60;;;;;;5032455;28;20937;-59
2021/04/13 11:30:56;;;;;;;0.60;0.30;;;20.90;31.60;;;;;;5035414;28;20444;-59
2021/04/13 11:33:40;;;;;;;0.70;0.40;;;20.90;31.60;;;;;;5035075;28;20879;-62
2021/04/13 11:36:21;;;;;;;1.42;0.60;;;20.90;31.60;;;;;;5034800;28;20383;-58
2021/04/13 11:38:50;;;;;;;1.17;0.43;;;20.90;31.50;;;;;;5035264;28;20490;-58
2021/04/13 11:42:13;;;;;;;1.35;0.40;;;20.90;31.50;;;;;;5035117;28;20391;-59
2021/04/13 11:44:57;;;;;;;1.60;0.45;;;20.90;31.50;;;;;;5032842;28;20421;-59
2021/04/13 11:47:47;;;;;;;0.85;0.47;;;20.90;31.40;;;;;;5032742;28;20411;-59
2021/04/13 11:50:22;;;;;;;1.67;0.50;;;20.90;31.40;;;;;;5033926;28;20478;-64
2021/04/13 11:53:05;;;;;;;1.13;0.57;;;20.90;31.40;;;;;;5034835;28;20387;-67
2021/04/13 11:55:31;;;;;;;1.05;0.47;;;20.90;31.40;;;;;;5034992;28;20478;-59
2021/04/13 11:58:18;;;;;;;0.80;0.40;;;20.90;31.40;;;;;;5034610;28;20497;-61
2021/04/13 12:00:45;;;;;;;0.57;0.30;;;20.90;31.40;;;;;;5044832;28;20412;-68
2021/04/13 12:03:33;;;;;;;0.85;0.40;;;20.90;31.40;;;;;;5043445;28;20861;-66
2021/04/13 12:06:01;;;;;;;0.95;0.40;;;20.90;31.40;;;;;;5047098;28;20405;-67
2021/04/13 12:08:30;;;;;;;0.80;0.40;;;20.90;31.40;;;;;;5042496;28;20387;-65
2021/04/13 12:10:58;;;;;;;0.70;0.30;;;20.90;31.40;;;;;;5042275;28;20398;-67
2021/04/13 12:13:43;;;;;;;0.50;0.30;;;20.90;31.50;;;;;;5038808;28;20406;-68
2021/04/13 12:16:20;;;;;;;0.70;0.47;;;20.90;31.40;;;;;;5034055;28;20756;-68
2021/04/13 12:18:50;;;;;;;0.50;0.32;;;20.90;31.40;;;;;;5034651;28;20414;-67
2021/04/13 12:21:25;;;;;;;0.50;0.40;;;20.90;31.40;;;;;;5034399;28;20867;-68
2021/04/13 12:23:54;;;;;;;0.40;0.32;;;20.90;31.50;;;;;;5034344;28;20399;-67
2021/04/13 12:26:40;;;;;;;1.33;0.38;;;20.90;31.40;;;;;;5034373;28;20399;-68
2021/04/13 12:29:32;;;;;;;1.42;0.47;;;20.90;31.40;;;;;;5034326;28;20400;-68
2021/04/13 12:32:13;;;;;;;0.73;0.30;;;20.90;31.40;;;;;;5032641;28;20418;-68
2021/04/13 12:34:59;;;;;;;0.70;0.40;;;20.90;31.40;;;;;;5034010;28;20970;-68
2021/04/13 12:37:37;;;;;;;0.65;0.40;;;20.90;31.40;;;;;;5034126;28;20426;-68
2021/04/13 12:40:30;;;;;;;1.10;0.45;;;20.90;31.40;;;;;;5031439;28;20470;-68
2021/04/13 12:43:16;;;;;;;0.60;0.40;;;20.90;31.40;;;;;;5032654;28;20824;-67
2021/04/13 12:45:44;;;;;;;0.80;0.50;;;20.90;31.40;;;;;;5033776;28;20403;-68
2021/04/13 12:48:41;;;;;;;0.60;0.40;;;20.90;31.40;;;;;;5033509;28;20474;-68
2021/04/13 12:51:11;;;;;;;0.60;0.35;;;20.90;31.40;;;;;;5033602;28;20387;-67
2021/04/13 12:53:37;;;;;;;0.65;0.40;;;20.90;31.40;;;;;;5034002;28;20395;-69
2021/04/13 12:56:14;;;;;;;0.90;0.45;;;20.90;31.40;;;;;;5033330;28;20882;-68
2021/04/13 12:58:42;;;;;;;0.77;0.50;;;20.90;31.40;;;;;;5033698;28;20414;-67
2021/04/13 13:01:17;;;;;;;0.90;0.50;;;20.90;31.40;;;;;;5033750;28;20388;-68
2021/04/13 13:03:43;;;;;;;1.17;0.60;;;20.90;31.50;;;;;;5033533;28;20392;-68
2021/04/13 13:06:35;;;;;;;1.13;0.47;;;20.90;31.60;;;;;;5031212;28;20482;-68
2021/04/13 13:09:18;;;;;;;2.60;0.55;;;20.90;31.50;;;;;;5033134;28;20506;-67
2021/04/13 13:11:43;;;;;;;1.92;0.65;;;20.90;31.40;;;;;;5033542;28;20379;-67
2021/04/13 13:14:13;;;;;;;1.50;0.50;;;20.90;31.30;;;;;;5031679;28;20414;-68
2021/04/13 13:16:39;;;;;;;2.30;0.50;;;20.90;31.30;;;;;;5032084;28;20778;-68
2021/04/13 13:19:05;;;;;;;2.45;0.50;;;20.90;31.70;;;;;;5033057;28;20379;-67
2021/04/13 13:21:58;;;;;;;3.42;0.57;;;20.90;32.40;;;;;;5033325;28;20421;-68
2021/04/13 13:24:27;;;;;;;1.52;0.50;;;20.90;32.10;;;;;;5033626;28;20410;-68
2021/04/13 13:26:54;;;;;;;2.67;0.70;;;20.90;31.90;;;;;;5032036;28;20386;-68
2021/04/13 13:29:19;;;;;;;1.38;0.60;;;20.90;31.90;;;;;;5033280;28;20416;-68
2021/04/13 13:31:45;;;;;;;1.52;0.60;;;20.90;31.80;;;;;;5031941;28;20764;-68
2021/04/13 13:34:17;;;;;;;1.83;0.70;;;20.80;31.70;;;;;;5031278;28;20403;-68
2021/04/13 13:36:45;;;;;;;2.20;0.60;;;20.90;31.80;;;;;;5031495;28;20403;-68
2021/04/13 13:39:12;;;;;;;1.10;0.60;;;20.90;31.70;;;;;;5032970;28;20395;-68
2021/04/13 13:41:48;;;;;;;2.00;0.73;;;20.90;32.20;;;;;;5033035;28;20465;-68